sensor_id;sensor_type;location;lat;lon;timestamp;P1;durP1;ratioP1;P2;durP2;ratioP2
56429;SDS011;42332;52.136;20.666;2024-01-15T00:01:07;13.30;;;5.63;;
56429;SDS011;42332;52.136;20.666;2024-01-15T00:03:33;22.92;;;5.93;;
56429;SDS011;42332;52.136;20.666;2024-01-15T00:05:58;17.52;;;4.50;;
56429;SDS011;42332;52.136;20.666;2024-01-15T00:08:23;10.02;;;4.18;;
56429;SDS011;42332;52.136;20.666;2024-01-15T00:10:49;7.22;;;4.70;;
56429;SDS011;42332;52.136;20.666;2024-01-15T00:13:14;9.40;;;5.10;;
56429;SDS011;42332;52.136;20.666;2024-01-15T00:15:39;9.90;;;5.10;;
56429;SDS011;42332;52.136;20.666;2024-01-15T00:18:05;12.15;;;5.10;;
56429;SDS011;42332;52.136;20.666;2024-01-15T00:20:31;9.75;;;5.82;;
56429;SDS011;42332;52.136;20.666;2024-01-15T00:22:56;20.45;;;6.95;;
56429;SDS011;42332;52.136;20.666;2024-01-15T00:25:22;16.98;;;5.63;;
56429;SDS011;42332;52.136;20.666;2024-01-15T00:27:47;9.93;;;5.32;;
56429;SDS011;42332;52.136;20.666;2024-01-15T00:30:13;16.48;;;5.95;;
56429;SDS011;42332;52.136;20.666;2024-01-15T00:32:38;11.43;;;5.25;;
56429;SDS011;42332;52.136;20.666;2024-01-15T00:35:04;10.93;;;5.35;;
56429;SDS011;42332;52.136;20.666;2024-01-15T00:37:30;9.82;;;4.82;;
56429;SDS011;42332;52.136;20.666;2024-01-15T00:39:55;19.83;;;6.65;;
56429;SDS011;42332;52.136;20.666;2024-01-15T00:42:20;9.65;;;4.88;;
56429;SDS011;42332;52.136;20.666;2024-01-15T00:44:46;14.25;;;6.72;;
56429;SDS011;42332;52.136;20.666;2024-01-15T00:47:11;10.15;;;5.85;;
56429;SDS011;42332;52.136;20.666;2024-01-15T00:49:37;7.57;;;3.90;;
56429;SDS011;42332;52.136;20.666;2024-01-15T00:52:02;12.95;;;4.82;;
56429;SDS011;42332;52.136;20.666;2024-01-15T00:54:28;12.73;;;6.15;;
56429;SDS011;42332;52.136;20.666;2024-01-15T00:56:53;10.60;;;5.65;;
56429;SDS011;42332;52.136;20.666;2024-01-15T00:59:19;10.38;;;4.63;;
56429;SDS011;42332;52.136;20.666;2024-01-15T01:01:45;11.82;;;6.95;;
56429;SDS011;42332;52.136;20.666;2024-01-15T01:04:11;15.45;;;6.57;;
56429;SDS011;42332;52.136;20.666;2024-01-15T01:06:37;16.00;;;6.70;;
56429;SDS011;42332;52.136;20.666;2024-01-15T01:09:03;16.00;;;7.22;;
56429;SDS011;42332;52.136;20.666;2024-01-15T01:11:28;8.15;;;4.07;;
56429;SDS011;42332;52.136;20.666;2024-01-15T01:13:54;19.90;;;7.55;;
56429;SDS011;42332;52.136;20.666;2024-01-15T01:16:19;20.10;;;6.80;;
56429;SDS011;42332;52.136;20.666;2024-01-15T01:18:44;9.02;;;3.95;;
56429;SDS011;42332;52.136;20.666;2024-01-15T01:21:10;17.45;;;7.15;;
56429;SDS011;42332;52.136;20.666;2024-01-15T01:23:35;21.60;;;6.75;;
56429;SDS011;42332;52.136;20.666;2024-01-15T01:26:01;6.00;;;3.75;;
56429;SDS011;42332;52.136;20.666;2024-01-15T01:28:27;18.25;;;6.20;;
56429;SDS011;42332;52.136;20.666;2024-01-15T01:30:53;9.73;;;5.65;;
56429;SDS011;42332;52.136;20.666;2024-01-15T01:33:18;10.77;;;5.72;;
56429;SDS011;42332;52.136;20.666;2024-01-15T01:35:43;12.68;;;5.60;;
56429;SDS011;42332;52.136;20.666;2024-01-15T01:38:10;14.60;;;6.80;;
56429;SDS011;42332;52.136;20.666;2024-01-15T01:40:35;13.35;;;6.35;;
56429;SDS011;42332;52.136;20.666;2024-01-15T01:43:02;17.42;;;7.50;;
56429;SDS011;42332;52.136;20.666;2024-01-15T01:45:28;14.50;;;6.07;;
56429;SDS011;42332;52.136;20.666;2024-01-15T01:47:53;15.98;;;6.07;;
56429;SDS011;42332;52.136;20.666;2024-01-15T01:50:19;16.60;;;7.35;;
56429;SDS011;42332;52.136;20.666;2024-01-15T01:52:44;14.20;;;6.00;;
56429;SDS011;42332;52.136;20.666;2024-01-15T01:55:10;16.38;;;7.28;;
56429;SDS011;42332;52.136;20.666;2024-01-15T01:57:36;13.50;;;6.88;;
56429;SDS011;42332;52.136;20.666;2024-01-15T02:00:02;24.48;;;8.38;;
56429;SDS011;42332;52.136;20.666;2024-01-15T02:02:29;12.05;;;6.72;;
56429;SDS011;42332;52.136;20.666;2024-01-15T02:04:55;15.80;;;6.80;;
56429;SDS011;42332;52.136;20.666;2024-01-15T02:07:20;12.85;;;5.65;;
56429;SDS011;42332;52.136;20.666;2024-01-15T02:09:46;17.63;;;7.25;;
56429;SDS011;42332;52.136;20.666;2024-01-15T02:12:11;16.88;;;8.07;;
56429;SDS011;42332;52.136;20.666;2024-01-15T02:14:37;14.75;;;6.55;;
56429;SDS011;42332;52.136;20.666;2024-01-15T02:17:02;18.63;;;6.95;;
56429;SDS011;42332;52.136;20.666;2024-01-15T02:19:28;22.55;;;7.20;;
56429;SDS011;42332;52.136;20.666;2024-01-15T02:21:53;18.38;;;7.35;;
56429;SDS011;42332;52.136;20.666;2024-01-15T02:24:19;13.10;;;7.03;;
56429;SDS011;42332;52.136;20.666;2024-01-15T02:26:44;13.48;;;6.30;;
56429;SDS011;42332;52.136;20.666;2024-01-15T02:29:09;17.08;;;7.45;;
56429;SDS011;42332;52.136;20.666;2024-01-15T02:31:38;14.57;;;5.70;;
56429;SDS011;42332;52.136;20.666;2024-01-15T02:34:04;12.30;;;5.88;;
56429;SDS011;42332;52.136;20.666;2024-01-15T02:36:29;12.23;;;6.25;;
56429;SDS011;42332;52.136;20.666;2024-01-15T02:38:55;12.75;;;5.65;;
56429;SDS011;42332;52.136;20.666;2024-01-15T02:41:20;23.02;;;6.95;;
56429;SDS011;42332;52.136;20.666;2024-01-15T02:43:46;9.60;;;5.53;;
56429;SDS011;42332;52.136;20.666;2024-01-15T02:46:11;14.70;;;6.85;;
56429;SDS011;42332;52.136;20.666;2024-01-15T02:48:41;10.07;;;5.25;;
56429;SDS011;42332;52.136;20.666;2024-01-15T02:51:06;17.85;;;6.55;;
56429;SDS011;42332;52.136;20.666;2024-01-15T02:53:32;9.15;;;4.47;;
56429;SDS011;42332;52.136;20.666;2024-01-15T02:55:57;9.25;;;4.15;;
56429;SDS011;42332;52.136;20.666;2024-01-15T02:58:22;7.63;;;3.58;;
56429;SDS011;42332;52.136;20.666;2024-01-15T03:00:48;10.52;;;6.10;;
56429;SDS011;42332;52.136;20.666;2024-01-15T03:03:13;17.58;;;6.85;;
56429;SDS011;42332;52.136;20.666;2024-01-15T03:05:38;17.48;;;6.82;;
56429;SDS011;42332;52.136;20.666;2024-01-15T03:08:04;13.63;;;5.45;;
56429;SDS011;42332;52.136;20.666;2024-01-15T03:10:29;10.88;;;4.05;;
56429;SDS011;42332;52.136;20.666;2024-01-15T03:12:54;12.05;;;6.35;;
56429;SDS011;42332;52.136;20.666;2024-01-15T03:15:20;17.20;;;7.18;;
56429;SDS011;42332;52.136;20.666;2024-01-15T03:17:45;16.35;;;6.68;;
56429;SDS011;42332;52.136;20.666;2024-01-15T03:20:11;20.85;;;7.40;;
56429;SDS011;42332;52.136;20.666;2024-01-15T03:22:36;13.70;;;7.22;;
56429;SDS011;42332;52.136;20.666;2024-01-15T03:25:02;7.88;;;4.82;;
56429;SDS011;42332;52.136;20.666;2024-01-15T03:27:28;12.07;;;6.03;;
56429;SDS011;42332;52.136;20.666;2024-01-15T03:29:54;14.40;;;7.15;;
56429;SDS011;42332;52.136;20.666;2024-01-15T03:32:19;19.73;;;7.07;;
56429;SDS011;42332;52.136;20.666;2024-01-15T03:34:45;11.85;;;6.30;;
56429;SDS011;42332;52.136;20.666;2024-01-15T03:37:11;12.55;;;6.57;;
56429;SDS011;42332;52.136;20.666;2024-01-15T03:39:37;13.73;;;6.93;;
56429;SDS011;42332;52.136;20.666;2024-01-15T03:42:03;12.90;;;6.10;;
56429;SDS011;42332;52.136;20.666;2024-01-15T03:44:28;14.23;;;4.93;;
56429;SDS011;42332;52.136;20.666;2024-01-15T03:46:54;10.65;;;4.53;;
56429;SDS011;42332;52.136;20.666;2024-01-15T03:49:19;11.80;;;5.50;;
56429;SDS011;42332;52.136;20.666;2024-01-15T03:51:44;9.77;;;4.55;;
56429;SDS011;42332;52.136;20.666;2024-01-15T03:54:10;12.30;;;5.70;;
56429;SDS011;42332;52.136;20.666;2024-01-15T03:56:35;11.38;;;5.53;;
56429;SDS011;42332;52.136;20.666;2024-01-15T03:59:00;8.55;;;4.82;;
56429;SDS011;42332;52.136;20.666;2024-01-15T04:01:26;12.15;;;4.28;;
56429;SDS011;42332;52.136;20.666;2024-01-15T04:03:51;12.82;;;5.40;;
56429;SDS011;42332;52.136;20.666;2024-01-15T04:06:16;14.35;;;4.53;;
56429;SDS011;42332;52.136;20.666;2024-01-15T04:08:42;9.18;;;5.15;;
56429;SDS011;42332;52.136;20.666;2024-01-15T04:11:07;11.20;;;5.85;;
56429;SDS011;42332;52.136;20.666;2024-01-15T04:13:33;16.25;;;5.20;;
56429;SDS011;42332;52.136;20.666;2024-01-15T04:15:59;9.70;;;4.40;;
56429;SDS011;42332;52.136;20.666;2024-01-15T04:18:25;6.88;;;3.72;;
56429;SDS011;42332;52.136;20.666;2024-01-15T04:20:50;11.45;;;5.80;;
56429;SDS011;42332;52.136;20.666;2024-01-15T04:23:16;22.73;;;6.25;;
56429;SDS011;42332;52.136;20.666;2024-01-15T04:25:41;15.73;;;5.78;;
56429;SDS011;42332;52.136;20.666;2024-01-15T04:28:08;12.32;;;5.10;;
56429;SDS011;42332;52.136;20.666;2024-01-15T04:30:33;20.00;;;5.63;;
56429;SDS011;42332;52.136;20.666;2024-01-15T04:32:59;10.60;;;4.95;;
56429;SDS011;42332;52.136;20.666;2024-01-15T04:35:24;11.50;;;5.55;;
56429;SDS011;42332;52.136;20.666;2024-01-15T04:37:49;9.68;;;5.25;;
56429;SDS011;42332;52.136;20.666;2024-01-15T04:40:15;9.85;;;4.93;;
56429;SDS011;42332;52.136;20.666;2024-01-15T04:42:40;15.40;;;5.55;;
56429;SDS011;42332;52.136;20.666;2024-01-15T04:45:06;8.43;;;4.97;;
56429;SDS011;42332;52.136;20.666;2024-01-15T04:47:31;10.43;;;5.47;;
56429;SDS011;42332;52.136;20.666;2024-01-15T04:49:57;10.23;;;5.43;;
56429;SDS011;42332;52.136;20.666;2024-01-15T04:52:22;6.60;;;2.85;;
56429;SDS011;42332;52.136;20.666;2024-01-15T04:54:48;11.73;;;6.30;;
56429;SDS011;42332;52.136;20.666;2024-01-15T04:57:14;12.40;;;5.85;;
56429;SDS011;42332;52.136;20.666;2024-01-15T04:59:40;11.85;;;5.88;;
56429;SDS011;42332;52.136;20.666;2024-01-15T05:02:05;17.40;;;5.28;;
56429;SDS011;42332;52.136;20.666;2024-01-15T05:04:31;15.68;;;5.25;;
56429;SDS011;42332;52.136;20.666;2024-01-15T05:06:56;16.80;;;5.43;;
56429;SDS011;42332;52.136;20.666;2024-01-15T05:09:21;9.23;;;4.38;;
56429;SDS011;42332;52.136;20.666;2024-01-15T05:11:47;8.60;;;4.88;;
56429;SDS011;42332;52.136;20.666;2024-01-15T05:14:12;29.67;;;11.25;;
56429;SDS011;42332;52.136;20.666;2024-01-15T05:16:38;18.63;;;8.23;;
56429;SDS011;42332;52.136;20.666;2024-01-15T05:19:04;15.23;;;8.00;;
56429;SDS011;42332;52.136;20.666;2024-01-15T05:21:29;28.80;;;10.68;;
56429;SDS011;42332;52.136;20.666;2024-01-15T05:23:54;27.80;;;10.88;;
56429;SDS011;42332;52.136;20.666;2024-01-15T05:26:20;19.20;;;8.40;;
56429;SDS011;42332;52.136;20.666;2024-01-15T05:28:45;14.80;;;6.45;;
56429;SDS011;42332;52.136;20.666;2024-01-15T05:31:10;11.07;;;4.35;;
56429;SDS011;42332;52.136;20.666;2024-01-15T05:33:36;14.88;;;5.90;;
56429;SDS011;42332;52.136;20.666;2024-01-15T05:36:02;11.75;;;5.40;;
56429;SDS011;42332;52.136;20.666;2024-01-15T05:38:27;23.92;;;7.75;;
56429;SDS011;42332;52.136;20.666;2024-01-15T05:40:53;37.95;;;11.48;;
56429;SDS011;42332;52.136;20.666;2024-01-15T05:43:18;155.35;;;33.33;;
56429;SDS011;42332;52.136;20.666;2024-01-15T05:45:44;78.63;;;21.50;;
56429;SDS011;42332;52.136;20.666;2024-01-15T05:48:09;59.30;;;15.70;;
56429;SDS011;42332;52.136;20.666;2024-01-15T05:50:35;186.55;;;35.20;;
56429;SDS011;42332;52.136;20.666;2024-01-15T05:53:00;149.20;;;26.55;;
56429;SDS011;42332;52.136;20.666;2024-01-15T05:55:27;68.30;;;14.35;;
56429;SDS011;42332;52.136;20.666;2024-01-15T05:57:53;49.45;;;10.20;;
56429;SDS011;42332;52.136;20.666;2024-01-15T06:00:18;44.28;;;10.38;;
56429;SDS011;42332;52.136;20.666;2024-01-15T06:02:43;82.30;;;17.83;;
56429;SDS011;42332;52.136;20.666;2024-01-15T06:05:09;51.20;;;11.52;;
56429;SDS011;42332;52.136;20.666;2024-01-15T06:07:34;37.20;;;10.05;;
56429;SDS011;42332;52.136;20.666;2024-01-15T06:10:01;17.52;;;5.72;;
56429;SDS011;42332;52.136;20.666;2024-01-15T06:12:26;51.47;;;10.07;;
56429;SDS011;42332;52.136;20.666;2024-01-15T06:14:52;21.67;;;7.47;;
56429;SDS011;42332;52.136;20.666;2024-01-15T06:17:18;25.00;;;6.78;;
56429;SDS011;42332;52.136;20.666;2024-01-15T06:19:43;23.17;;;6.10;;
56429;SDS011;42332;52.136;20.666;2024-01-15T06:22:09;18.15;;;7.53;;
56429;SDS011;42332;52.136;20.666;2024-01-15T06:24:34;9.52;;;5.28;;
56429;SDS011;42332;52.136;20.666;2024-01-15T06:26:59;12.88;;;4.78;;
56429;SDS011;42332;52.136;20.666;2024-01-15T06:29:25;11.30;;;6.00;;
56429;SDS011;42332;52.136;20.666;2024-01-15T06:31:51;17.85;;;5.57;;
56429;SDS011;42332;52.136;20.666;2024-01-15T06:34:16;8.13;;;4.20;;
56429;SDS011;42332;52.136;20.666;2024-01-15T06:36:42;16.83;;;6.85;;
56429;SDS011;42332;52.136;20.666;2024-01-15T06:39:07;10.50;;;2.83;;
56429;SDS011;42332;52.136;20.666;2024-01-15T06:41:33;10.68;;;4.97;;
56429;SDS011;42332;52.136;20.666;2024-01-15T06:43:58;25.67;;;5.65;;
56429;SDS011;42332;52.136;20.666;2024-01-15T06:46:23;14.45;;;5.00;;
56429;SDS011;42332;52.136;20.666;2024-01-15T06:48:49;18.92;;;7.25;;
56429;SDS011;42332;52.136;20.666;2024-01-15T06:51:15;14.55;;;5.78;;
56429;SDS011;42332;52.136;20.666;2024-01-15T06:53:41;68.07;;;17.77;;
56429;SDS011;42332;52.136;20.666;2024-01-15T06:56:06;26.27;;;6.22;;
56429;SDS011;42332;52.136;20.666;2024-01-15T06:58:31;17.83;;;6.80;;
56429;SDS011;42332;52.136;20.666;2024-01-15T07:00:57;15.35;;;7.75;;
56429;SDS011;42332;52.136;20.666;2024-01-15T07:03:22;18.63;;;6.18;;
56429;SDS011;42332;52.136;20.666;2024-01-15T07:05:48;15.82;;;6.88;;
56429;SDS011;42332;52.136;20.666;2024-01-15T07:08:13;5.90;;;3.17;;
56429;SDS011;42332;52.136;20.666;2024-01-15T07:10:39;20.38;;;8.45;;
56429;SDS011;42332;52.136;20.666;2024-01-15T07:13:04;14.55;;;6.30;;
56429;SDS011;42332;52.136;20.666;2024-01-15T07:15:30;21.55;;;6.95;;
56429;SDS011;42332;52.136;20.666;2024-01-15T07:17:56;8.70;;;4.35;;
56429;SDS011;42332;52.136;20.666;2024-01-15T07:20:21;11.23;;;5.80;;
56429;SDS011;42332;52.136;20.666;2024-01-15T07:22:47;10.63;;;4.28;;
56429;SDS011;42332;52.136;20.666;2024-01-15T07:25:12;11.45;;;5.38;;
56429;SDS011;42332;52.136;20.666;2024-01-15T07:27:38;11.13;;;5.72;;
56429;SDS011;42332;52.136;20.666;2024-01-15T07:30:03;21.83;;;5.97;;
56429;SDS011;42332;52.136;20.666;2024-01-15T07:32:30;14.73;;;6.28;;
56429;SDS011;42332;52.136;20.666;2024-01-15T07:34:56;11.15;;;5.93;;
56429;SDS011;42332;52.136;20.666;2024-01-15T07:37:22;14.48;;;6.78;;
56429;SDS011;42332;52.136;20.666;2024-01-15T07:39:48;12.23;;;4.13;;
56429;SDS011;42332;52.136;20.666;2024-01-15T07:42:14;7.93;;;3.95;;
56429;SDS011;42332;52.136;20.666;2024-01-15T07:44:39;13.55;;;5.53;;
56429;SDS011;42332;52.136;20.666;2024-01-15T07:47:05;16.40;;;6.20;;
56429;SDS011;42332;52.136;20.666;2024-01-15T07:49:30;15.05;;;7.28;;
56429;SDS011;42332;52.136;20.666;2024-01-15T07:51:55;21.70;;;7.50;;
56429;SDS011;42332;52.136;20.666;2024-01-15T07:54:21;11.32;;;5.03;;
56429;SDS011;42332;52.136;20.666;2024-01-15T07:56:56;19.75;;;4.85;;
56429;SDS011;42332;52.136;20.666;2024-01-15T07:59:26;17.42;;;4.53;;
56429;SDS011;42332;52.136;20.666;2024-01-15T08:01:52;12.50;;;4.47;;
56429;SDS011;42332;52.136;20.666;2024-01-15T08:04:17;14.25;;;5.43;;
56429;SDS011;42332;52.136;20.666;2024-01-15T08:06:43;14.25;;;5.88;;
56429;SDS011;42332;52.136;20.666;2024-01-15T08:09:09;14.95;;;5.40;;
56429;SDS011;42332;52.136;20.666;2024-01-15T08:11:34;13.30;;;4.63;;
56429;SDS011;42332;52.136;20.666;2024-01-15T08:14:00;11.27;;;5.00;;
56429;SDS011;42332;52.136;20.666;2024-01-15T08:16:25;11.27;;;5.45;;
56429;SDS011;42332;52.136;20.666;2024-01-15T08:18:52;16.35;;;6.38;;
56429;SDS011;42332;52.136;20.666;2024-01-15T08:21:18;12.65;;;6.22;;
56429;SDS011;42332;52.136;20.666;2024-01-15T08:23:43;12.88;;;6.15;;
56429;SDS011;42332;52.136;20.666;2024-01-15T08:26:09;8.80;;;4.70;;
56429;SDS011;42332;52.136;20.666;2024-01-15T08:28:35;13.80;;;5.97;;
56429;SDS011;42332;52.136;20.666;2024-01-15T08:31:01;14.18;;;6.80;;
56429;SDS011;42332;52.136;20.666;2024-01-15T08:33:26;21.25;;;7.65;;
56429;SDS011;42332;52.136;20.666;2024-01-15T08:35:51;16.13;;;7.95;;
56429;SDS011;42332;52.136;20.666;2024-01-15T08:38:18;13.20;;;6.10;;
56429;SDS011;42332;52.136;20.666;2024-01-15T08:40:44;11.82;;;6.57;;
56429;SDS011;42332;52.136;20.666;2024-01-15T08:43:09;12.20;;;5.22;;
56429;SDS011;42332;52.136;20.666;2024-01-15T08:45:34;8.63;;;4.65;;
56429;SDS011;42332;52.136;20.666;2024-01-15T08:48:00;9.18;;;4.40;;
56429;SDS011;42332;52.136;20.666;2024-01-15T08:50:26;6.72;;;3.33;;
56429;SDS011;42332;52.136;20.666;2024-01-15T08:52:51;8.95;;;3.35;;
56429;SDS011;42332;52.136;20.666;2024-01-15T08:55:17;9.43;;;4.90;;
56429;SDS011;42332;52.136;20.666;2024-01-15T08:57:42;9.07;;;5.15;;
56429;SDS011;42332;52.136;20.666;2024-01-15T09:00:08;9.23;;;4.65;;
56429;SDS011;42332;52.136;20.666;2024-01-15T09:02:34;6.65;;;2.85;;
56429;SDS011;42332;52.136;20.666;2024-01-15T09:05:00;13.38;;;4.93;;
56429;SDS011;42332;52.136;20.666;2024-01-15T09:07:26;10.05;;;4.82;;
56429;SDS011;42332;52.136;20.666;2024-01-15T09:09:52;12.85;;;5.57;;
56429;SDS011;42332;52.136;20.666;2024-01-15T09:12:18;10.38;;;5.38;;
56429;SDS011;42332;52.136;20.666;2024-01-15T09:14:45;9.85;;;4.50;;
56429;SDS011;42332;52.136;20.666;2024-01-15T09:17:15;11.05;;;4.28;;
56429;SDS011;42332;52.136;20.666;2024-01-15T09:19:40;8.45;;;4.22;;
56429;SDS011;42332;52.136;20.666;2024-01-15T09:22:06;4.88;;;2.90;;
56429;SDS011;42332;52.136;20.666;2024-01-15T09:24:32;6.05;;;2.97;;
56429;SDS011;42332;52.136;20.666;2024-01-15T09:26:57;4.50;;;2.65;;
56429;SDS011;42332;52.136;20.666;2024-01-15T09:29:23;8.30;;;2.97;;
56429;SDS011;42332;52.136;20.666;2024-01-15T09:31:49;4.70;;;2.58;;
56429;SDS011;42332;52.136;20.666;2024-01-15T09:34:15;4.50;;;1.92;;
56429;SDS011;42332;52.136;20.666;2024-01-15T09:36:41;9.60;;;3.35;;
56429;SDS011;42332;52.136;20.666;2024-01-15T09:39:07;4.05;;;2.08;;
56429;SDS011;42332;52.136;20.666;2024-01-15T09:41:36;6.07;;;2.38;;
56429;SDS011;42332;52.136;20.666;2024-01-15T09:44:05;14.90;;;2.80;;
56429;SDS011;42332;52.136;20.666;2024-01-15T09:46:32;6.50;;;2.65;;
56429;SDS011;42332;52.136;20.666;2024-01-15T09:48:58;7.15;;;2.33;;
56429;SDS011;42332;52.136;20.666;2024-01-15T09:51:24;7.47;;;2.83;;
56429;SDS011;42332;52.136;20.666;2024-01-15T09:53:49;8.05;;;2.15;;
56429;SDS011;42332;52.136;20.666;2024-01-15T09:56:15;11.00;;;3.20;;
56429;SDS011;42332;52.136;20.666;2024-01-15T09:58:41;7.25;;;3.53;;
56429;SDS011;42332;52.136;20.666;2024-01-15T10:01:07;12.80;;;2.78;;
56429;SDS011;42332;52.136;20.666;2024-01-15T10:03:33;4.25;;;2.35;;
56429;SDS011;42332;52.136;20.666;2024-01-15T10:05:59;7.38;;;2.90;;
56429;SDS011;42332;52.136;20.666;2024-01-15T10:08:24;9.07;;;3.67;;
56429;SDS011;42332;52.136;20.666;2024-01-15T10:10:50;9.15;;;3.97;;
56429;SDS011;42332;52.136;20.666;2024-01-15T10:13:15;8.43;;;3.80;;
56429;SDS011;42332;52.136;20.666;2024-01-15T10:15:41;7.30;;;2.75;;
56429;SDS011;42332;52.136;20.666;2024-01-15T10:18:07;7.10;;;3.72;;
56429;SDS011;42332;52.136;20.666;2024-01-15T10:20:33;3.97;;;1.83;;
56429;SDS011;42332;52.136;20.666;2024-01-15T10:22:58;4.97;;;2.53;;
56429;SDS011;42332;52.136;20.666;2024-01-15T10:25:24;7.32;;;3.90;;
56429;SDS011;42332;52.136;20.666;2024-01-15T10:28:08;3.92;;;2.10;;
56429;SDS011;42332;52.136;20.666;2024-01-15T10:30:34;8.05;;;3.38;;
56429;SDS011;42332;52.136;20.666;2024-01-15T10:33:00;9.13;;;3.28;;
56429;SDS011;42332;52.136;20.666;2024-01-15T10:35:28;10.35;;;4.57;;
56429;SDS011;42332;52.136;20.666;2024-01-15T10:38:01;5.75;;;2.78;;
56429;SDS011;42332;52.136;20.666;2024-01-15T10:40:27;8.43;;;3.17;;
56429;SDS011;42332;52.136;20.666;2024-01-15T10:42:52;9.88;;;3.80;;
56429;SDS011;42332;52.136;20.666;2024-01-15T10:45:18;12.93;;;4.13;;
56429;SDS011;42332;52.136;20.666;2024-01-15T10:47:44;10.77;;;4.47;;
56429;SDS011;42332;52.136;20.666;2024-01-15T10:50:09;7.68;;;3.33;;
56429;SDS011;42332;52.136;20.666;2024-01-15T10:52:35;7.25;;;2.55;;
56429;SDS011;42332;52.136;20.666;2024-01-15T10:55:02;6.15;;;3.67;;
56429;SDS011;42332;52.136;20.666;2024-01-15T10:57:29;8.85;;;4.00;;
56429;SDS011;42332;52.136;20.666;2024-01-15T10:59:55;14.45;;;4.93;;
56429;SDS011;42332;52.136;20.666;2024-01-15T11:02:20;12.05;;;2.58;;
56429;SDS011;42332;52.136;20.666;2024-01-15T11:04:45;9.93;;;3.42;;
56429;SDS011;42332;52.136;20.666;2024-01-15T11:07:11;14.45;;;4.85;;
56429;SDS011;42332;52.136;20.666;2024-01-15T11:09:38;11.23;;;3.70;;
56429;SDS011;42332;52.136;20.666;2024-01-15T11:12:10;13.00;;;3.58;;
56429;SDS011;42332;52.136;20.666;2024-01-15T11:14:40;16.20;;;5.30;;
56429;SDS011;42332;52.136;20.666;2024-01-15T11:17:10;11.98;;;4.25;;
56429;SDS011;42332;52.136;20.666;2024-01-15T11:19:36;11.50;;;4.82;;
56429;SDS011;42332;52.136;20.666;2024-01-15T11:22:08;6.10;;;3.92;;
56429;SDS011;42332;52.136;20.666;2024-01-15T11:24:35;7.53;;;3.90;;
56429;SDS011;42332;52.136;20.666;2024-01-15T11:27:01;7.47;;;3.10;;
56429;SDS011;42332;52.136;20.666;2024-01-15T11:34:21;20.25;;;5.68;;
56429;SDS011;42332;52.136;20.666;2024-01-15T11:37:16;9.48;;;3.78;;
56429;SDS011;42332;52.136;20.666;2024-01-15T11:39:42;7.97;;;4.07;;
56429;SDS011;42332;52.136;20.666;2024-01-15T11:42:11;12.85;;;7.03;;
56429;SDS011;42332;52.136;20.666;2024-01-15T11:44:38;12.82;;;5.18;;
56429;SDS011;42332;52.136;20.666;2024-01-15T11:47:04;10.32;;;5.45;;
56429;SDS011;42332;52.136;20.666;2024-01-15T11:52:09;17.00;;;4.75;;
56429;SDS011;42332;52.136;20.666;2024-01-15T11:54:38;19.65;;;5.97;;
56429;SDS011;42332;52.136;20.666;2024-01-15T11:57:10;15.77;;;3.63;;
56429;SDS011;42332;52.136;20.666;2024-01-15T11:59:42;4.60;;;2.83;;
56429;SDS011;42332;52.136;20.666;2024-01-15T12:02:08;9.38;;;4.10;;
56429;SDS011;42332;52.136;20.666;2024-01-15T12:04:33;12.02;;;3.60;;
56429;SDS011;42332;52.136;20.666;2024-01-15T12:06:58;11.93;;;4.80;;
56429;SDS011;42332;52.136;20.666;2024-01-15T12:09:24;12.73;;;5.57;;
56429;SDS011;42332;52.136;20.666;2024-01-15T12:11:51;13.77;;;4.72;;
56429;SDS011;42332;52.136;20.666;2024-01-15T12:14:21;11.55;;;4.45;;
56429;SDS011;42332;52.136;20.666;2024-01-15T12:16:47;13.10;;;4.85;;
56429;SDS011;42332;52.136;20.666;2024-01-15T12:19:13;11.65;;;5.25;;
56429;SDS011;42332;52.136;20.666;2024-01-15T12:21:39;11.77;;;4.30;;
56429;SDS011;42332;52.136;20.666;2024-01-15T12:24:06;15.70;;;5.75;;
56429;SDS011;42332;52.136;20.666;2024-01-15T12:26:32;12.73;;;5.32;;
56429;SDS011;42332;52.136;20.666;2024-01-15T12:28:58;9.40;;;3.42;;
56429;SDS011;42332;52.136;20.666;2024-01-15T12:31:27;9.38;;;5.35;;
56429;SDS011;42332;52.136;20.666;2024-01-15T12:33:52;12.23;;;5.32;;
56429;SDS011;42332;52.136;20.666;2024-01-15T12:36:21;12.93;;;5.53;;
56429;SDS011;42332;52.136;20.666;2024-01-15T12:38:46;11.13;;;4.38;;
56429;SDS011;42332;52.136;20.666;2024-01-15T12:41:12;8.80;;;3.80;;
56429;SDS011;42332;52.136;20.666;2024-01-15T12:43:37;10.05;;;4.10;;
56429;SDS011;42332;52.136;20.666;2024-01-15T12:46:02;12.07;;;4.85;;
56429;SDS011;42332;52.136;20.666;2024-01-15T12:48:28;11.25;;;4.68;;
56429;SDS011;42332;52.136;20.666;2024-01-15T12:50:53;12.40;;;5.22;;
56429;SDS011;42332;52.136;20.666;2024-01-15T12:53:19;14.02;;;5.50;;
56429;SDS011;42332;52.136;20.666;2024-01-15T12:55:44;13.75;;;5.03;;
56429;SDS011;42332;52.136;20.666;2024-01-15T12:58:18;11.43;;;4.68;;
56429;SDS011;42332;52.136;20.666;2024-01-15T13:00:44;13.25;;;6.18;;
56429;SDS011;42332;52.136;20.666;2024-01-15T13:03:09;13.38;;;5.88;;
56429;SDS011;42332;52.136;20.666;2024-01-15T13:05:34;19.52;;;6.03;;
56429;SDS011;42332;52.136;20.666;2024-01-15T13:08:01;13.88;;;5.07;;
56429;SDS011;42332;52.136;20.666;2024-01-15T13:10:26;11.40;;;5.22;;
56429;SDS011;42332;52.136;20.666;2024-01-15T13:12:54;11.40;;;5.72;;
56429;SDS011;42332;52.136;20.666;2024-01-15T13:15:20;2.75;;;1.52;;
56429;SDS011;42332;52.136;20.666;2024-01-15T13:17:45;17.48;;;5.50;;
56429;SDS011;42332;52.136;20.666;2024-01-15T13:20:11;14.60;;;6.53;;
56429;SDS011;42332;52.136;20.666;2024-01-15T13:22:37;12.45;;;4.82;;
56429;SDS011;42332;52.136;20.666;2024-01-15T13:25:05;6.82;;;4.78;;
56429;SDS011;42332;52.136;20.666;2024-01-15T13:27:32;9.75;;;5.20;;
56429;SDS011;42332;52.136;20.666;2024-01-15T13:30:00;19.77;;;6.80;;
56429;SDS011;42332;52.136;20.666;2024-01-15T13:32:25;20.52;;;9.30;;
56429;SDS011;42332;52.136;20.666;2024-01-15T13:34:54;18.17;;;7.60;;
56429;SDS011;42332;52.136;20.666;2024-01-15T13:37:22;19.45;;;8.25;;
56429;SDS011;42332;52.136;20.666;2024-01-15T13:39:51;14.50;;;5.60;;
56429;SDS011;42332;52.136;20.666;2024-01-15T13:42:17;16.98;;;5.00;;
56429;SDS011;42332;52.136;20.666;2024-01-15T13:44:43;11.98;;;7.07;;
56429;SDS011;42332;52.136;20.666;2024-01-15T13:47:08;20.33;;;7.28;;
56429;SDS011;42332;52.136;20.666;2024-01-15T13:49:34;20.13;;;6.75;;
56429;SDS011;42332;52.136;20.666;2024-01-15T13:52:01;14.80;;;5.05;;
56429;SDS011;42332;52.136;20.666;2024-01-15T13:54:28;9.77;;;4.05;;
56429;SDS011;42332;52.136;20.666;2024-01-15T13:56:55;25.50;;;7.40;;
56429;SDS011;42332;52.136;20.666;2024-01-15T13:59:20;12.73;;;5.85;;
56429;SDS011;42332;52.136;20.666;2024-01-15T14:01:45;16.75;;;6.55;;
56429;SDS011;42332;52.136;20.666;2024-01-15T14:04:12;14.57;;;4.72;;
56429;SDS011;42332;52.136;20.666;2024-01-15T14:06:37;9.18;;;4.40;;
56429;SDS011;42332;52.136;20.666;2024-01-15T14:09:04;8.55;;;3.42;;
56429;SDS011;42332;52.136;20.666;2024-01-15T14:11:29;9.73;;;4.85;;
56429;SDS011;42332;52.136;20.666;2024-01-15T14:13:55;11.25;;;5.20;;
56429;SDS011;42332;52.136;20.666;2024-01-15T14:16:20;14.35;;;5.85;;
56429;SDS011;42332;52.136;20.666;2024-01-15T14:18:45;11.13;;;4.80;;
56429;SDS011;42332;52.136;20.666;2024-01-15T14:21:11;12.95;;;3.72;;
56429;SDS011;42332;52.136;20.666;2024-01-15T14:23:36;9.07;;;3.67;;